createdAt,value
2019-02-22T00:00:56.388Z,11.25
2019-02-22T00:01:56.379Z,11.32
2019-02-22T00:02:56.654Z,11.26
2019-02-22T00:03:56.674Z,11.29
2019-02-22T00:04:56.448Z,11.23
2019-02-22T00:05:56.467Z,11.26
2019-02-22T00:06:56.736Z,11.3
2019-02-22T00:07:56.752Z,11.35
2019-02-22T00:08:56.515Z,11.3
2019-02-22T00:09:56.542Z,11.27
2019-02-22T00:10:56.812Z,11.27
2019-02-22T00:11:56.574Z,11.19
2019-02-22T00:12:56.590Z,11.25
2019-02-22T00:13:56.615Z,11.22
2019-02-22T00:14:56.370Z,11.29
2019-02-22T00:15:56.397Z,11.26
2019-02-22T00:16:56.671Z,11.23
2019-02-22T00:17:56.438Z,11.17
2019-02-22T00:18:56.449Z,11.26
2019-02-22T00:19:56.724Z,11.18
2019-02-22T00:20:56.489Z,11.18
2019-02-22T00:21:56.507Z,11.18
2019-02-22T00:22:56.782Z,11.19
2019-02-22T00:23:56.548Z,11.17
2019-02-22T00:24:56.875Z,11.18
2019-02-22T00:25:56.581Z,11.17
2019-02-22T00:26:57.131Z,11.19
2019-02-22T00:27:56.626Z,11.19
2019-02-22T00:28:56.639Z,11.18
2019-02-22T00:29:56.660Z,11.11
2019-02-22T00:30:56.947Z,11.19
2019-02-22T00:31:57.216Z,11.26
2019-02-22T00:32:56.972Z,11.19
2019-02-22T00:33:56.993Z,11.19
2019-02-22T00:34:57.435Z,11.19
2019-02-22T00:35:57.096Z,11.15
2019-02-22T00:36:56.878Z,11.25
2019-02-22T00:37:56.813Z,11.18
2019-02-22T00:39:09.866Z,11.22
2019-02-22T00:39:56.854Z,11.18
2019-02-22T00:40:56.867Z,11.17
2019-02-22T00:41:57.465Z,11.19
2019-02-22T00:42:57.171Z,11.17
2019-02-22T00:43:56.928Z,11.19
2019-02-22T00:44:56.958Z,11.18
2019-02-22T00:45:57.229Z,11.15
2019-02-22T00:46:56.984Z,11.18
2019-02-22T00:47:57.001Z,11.1
2019-02-22T00:48:57.027Z,11.22
2019-02-22T00:49:57.044Z,11.22
2019-02-22T00:50:57.070Z,11.15
2019-02-22T00:51:57.081Z,11.19
2019-02-22T00:52:57.366Z,11.1
2019-02-22T00:53:57.380Z,11.15
2019-02-22T00:54:57.147Z,11.19
2019-02-22T00:55:57.703Z,11.18
2019-02-22T00:56:57.452Z,11.11
2019-02-22T00:57:57.456Z,11.22
2019-02-22T00:58:57.235Z,11.15
2019-02-22T00:59:57.234Z,11.11
2019-02-22T01:00:57.519Z,11.14
2019-02-22T01:01:57.529Z,11.15
2019-02-22T01:02:57.292Z,11.11
2019-02-22T01:03:57.312Z,11.12
2019-02-22T01:04:57.588Z,11.14
2019-02-22T01:05:57.642Z,11.17
2019-02-22T01:06:57.629Z,11.12
2019-02-22T01:07:57.644Z,11.08
2019-02-22T01:08:57.926Z,11.11
2019-02-22T01:09:57.681Z,11.12
2019-02-22T01:10:57.703Z,11.1
2019-02-22T01:11:57.465Z,11.15
2019-02-22T01:12:57.487Z,11.12
2019-02-22T01:13:57.766Z,11.1
2019-02-22T01:14:57.783Z,11.08
2019-02-22T01:15:57.806Z,11.15
2019-02-22T01:16:59.559Z,11.12
2019-02-22T01:17:57.582Z,11.08
2019-02-22T01:18:57.865Z,11.1
2019-02-22T01:19:57.881Z,11.17
2019-02-22T01:20:59.364Z,11.12
2019-02-22T01:21:57.657Z,11.15
2019-02-22T01:22:57.938Z,11.12
2019-02-22T01:23:57.701Z,11.05
2019-02-22T01:24:57.998Z,11.08
2019-02-22T01:25:57.771Z,11.12
2019-02-22T01:26:57.759Z,11.17
2019-02-22T01:27:58.031Z,11.14
2019-02-22T01:28:58.054Z,11.14
2019-02-22T01:29:58.072Z,11.17
2019-02-22T01:30:58.093Z,11.14
2019-02-22T01:31:57.849Z,11.15
2019-02-22T01:32:57.877Z,11.08
2019-02-22T01:33:58.910Z,11.11
2019-02-22T01:34:58.166Z,11.1
2019-02-22T01:35:57.927Z,11.05
2019-02-22T01:36:58.203Z,11.12
2019-02-22T01:37:58.230Z,11.1
2019-02-22T01:38:58.250Z,11.14
2019-02-22T01:39:58.006Z,11.11
2019-02-22T01:40:58.033Z,11.15
2019-02-22T01:41:58.301Z,11.07
2019-02-22T01:42:58.320Z,11.1
2019-02-22T01:43:58.340Z,11.14
2019-02-22T01:44:58.361Z,11.07
2019-02-22T01:45:58.380Z,11.17
2019-02-22T01:46:58.141Z,11.11
2019-02-22T01:47:58.416Z,11.1
2019-02-22T01:48:58.197Z,11.1
2019-02-22T01:49:58.202Z,11.07
2019-02-22T01:50:58.730Z,11.07
2019-02-22T01:51:58.537Z,11.11
2019-02-22T01:52:58.261Z,11.14
2019-02-22T01:53:58.502Z,11.12
2019-02-22T01:54:58.549Z,11.12
2019-02-22T01:55:58.880Z,11.08
2019-02-22T01:56:58.332Z,11.1
2019-02-22T01:57:58.608Z,11.1
2019-02-22T01:58:58.631Z,11.15
2019-02-22T01:59:58.909Z,11.1
2019-02-22T02:00:58.670Z,11.15
2019-02-22T02:01:58.460Z,11.04
2019-02-22T02:02:58.715Z,11.02
2019-02-22T02:03:58.722Z,11.05
2019-02-22T02:04:58.483Z,11.1
2019-02-22T02:05:58.760Z,11.14
2019-02-22T02:06:58.519Z,11.14
2019-02-22T02:07:58.576Z,11.07
2019-02-22T02:08:58.560Z,11.05
2019-02-22T02:09:58.583Z,11
2019-02-22T02:10:58.960Z,11.14
2019-02-22T02:11:58.618Z,11.07
2019-02-22T02:12:58.898Z,11.11
2019-02-22T02:13:58.655Z,11.02
2019-02-22T02:14:58.673Z,11.11
2019-02-22T02:15:58.952Z,11.12
2019-02-22T02:16:58.715Z,11.14
2019-02-22T02:17:58.989Z,11.12
2019-02-22T02:18:59.010Z,11.1
2019-02-22T02:19:58.770Z,11.04
2019-02-22T02:20:59.123Z,10.99
2019-02-22T02:21:58.831Z,11.12
2019-02-22T02:22:59.091Z,11.14
2019-02-22T02:23:59.395Z,11.08
2019-02-22T02:24:59.134Z,11.1
2019-02-22T02:25:59.192Z,11.04
2019-02-22T02:26:59.421Z,11.02
2019-02-22T02:27:59.442Z,11.11
2019-02-22T02:28:59.471Z,11.04
2019-02-22T02:29:59.233Z,11
2019-02-22T02:30:59.496Z,11.12
2019-02-22T02:31:59.267Z,11.02
2019-02-22T02:32:59.030Z,11.05
2019-02-22T02:33:59.299Z,11.07
2019-02-22T02:34:59.326Z,11.05
2019-02-22T02:35:59.355Z,11.07
2019-02-22T02:36:59.359Z,11.12
2019-02-22T02:37:59.121Z,11.11
2019-02-22T02:38:59.407Z,11.05
2019-02-22T02:39:59.419Z,11.11
2019-02-22T02:41:14.067Z,11.02
2019-02-22T02:41:59.477Z,11.07
2019-02-22T02:42:59.217Z,11.05
2019-02-22T02:43:59.747Z,11.14
2019-02-22T02:44:59.517Z,11.04
2019-02-22T02:45:59.534Z,11.1
2019-02-22T02:46:59.547Z,11.1
2019-02-22T02:47:59.310Z,11.04
2019-02-22T02:48:59.850Z,11.04
2019-02-22T02:49:59.395Z,11.07
2019-02-22T02:50:59.622Z,11.02
2019-02-22T02:51:59.658Z,11.05
2019-02-22T02:52:59.692Z,11.07
2019-02-22T02:53:59.702Z,11.07
2019-02-22T02:54:59.442Z,11.07
2019-02-22T02:55:59.723Z,11.02
2019-02-22T02:56:59.490Z,11.04
2019-02-22T02:57:59.767Z,11
2019-02-22T02:58:59.794Z,10.96
2019-02-22T03:00:00.237Z,11.05
2019-02-22T03:00:59.584Z,10.96
2019-02-22T03:01:59.836Z,11
2019-02-22T03:02:59.858Z,11.07
2019-02-22T03:03:59.872Z,11
2019-02-22T03:04:59.902Z,10.97
2019-02-22T03:06:00.188Z,11.04
2019-02-22T03:07:00.187Z,11.1
2019-02-22T03:08:00.208Z,11
2019-02-22T03:08:59.970Z,10.99
2019-02-22T03:10:00.422Z,11.05
2019-02-22T03:11:00.022Z,11.02
2019-02-22T03:12:00.032Z,10.99
2019-02-22T03:13:00.323Z,11
2019-02-22T03:13:59.820Z,10.97
2019-02-22T03:15:00.281Z,11.04
2019-02-22T03:16:00.384Z,10.97
2019-02-22T03:16:59.865Z,11
2019-02-22T03:17:59.887Z,10.96
2019-02-22T03:19:00.181Z,11.04
2019-02-22T03:20:00.329Z,10.99
2019-02-22T03:21:00.199Z,10.97
2019-02-22T03:21:59.959Z,11.02
2019-02-22T03:23:00.247Z,11.02
2019-02-22T03:23:59.998Z,11.02
2019-02-22T03:25:00.345Z,11.02
2019-02-22T03:26:00.554Z,10.99
2019-02-22T03:27:00.401Z,10.97
2019-02-22T03:28:00.355Z,10.97
2019-02-22T03:29:00.612Z,11
2019-02-22T03:30:00.720Z,11.02
2019-02-22T03:31:00.426Z,11.05
2019-02-22T03:32:00.436Z,10.96
2019-02-22T03:33:00.193Z,10.99
2019-02-22T03:34:00.483Z,11
2019-02-22T03:35:00.535Z,11.02
2019-02-22T03:36:00.493Z,10.97
2019-02-22T03:37:00.255Z,10.97
2019-02-22T03:38:00.562Z,10.99
2019-02-22T03:39:00.290Z,11.02
2019-02-22T03:40:00.824Z,10.99
2019-02-22T03:41:00.839Z,11.07
2019-02-22T03:42:00.865Z,10.94
2019-02-22T03:43:00.620Z,11.04
2019-02-22T03:44:00.917Z,11
2019-02-22T03:45:00.397Z,10.96
2019-02-22T03:46:00.434Z,10.99
2019-02-22T03:47:00.439Z,10.96
2019-02-22T03:48:00.730Z,10.94
2019-02-22T03:49:00.738Z,10.99
2019-02-22T03:50:01.012Z,10.99
2019-02-22T03:51:00.777Z,11
2019-02-22T03:52:00.810Z,11.07
2019-02-22T03:53:00.563Z,10.97
2019-02-22T03:54:02.183Z,11.07
2019-02-22T03:55:01.117Z,11
2019-02-22T03:56:00.612Z,11.04
2019-02-22T03:57:00.629Z,10.96
2019-02-22T03:58:00.657Z,10.97
2019-02-22T03:59:01.257Z,11.07
2019-02-22T04:00:00.946Z,10.93
2019-02-22T04:01:00.976Z,10.97
2019-02-22T04:02:00.991Z,11.04
2019-02-22T04:03:01.016Z,10.96
2019-02-22T04:04:01.149Z,11
2019-02-22T04:05:00.790Z,10.97
2019-02-22T04:06:01.069Z,11.04
2019-02-22T04:07:01.347Z,10.93
2019-02-22T04:08:01.117Z,10.93
2019-02-22T04:09:01.132Z,10.99
2019-02-22T04:10:01.159Z,10.93
2019-02-22T04:11:00.903Z,10.97
2019-02-22T04:12:01.443Z,11.04
2019-02-22T04:13:01.210Z,10.94
2019-02-22T04:14:00.959Z,11.04
2019-02-22T04:15:01.238Z,11
2019-02-22T04:16:00.995Z,10.99
2019-02-22T04:17:01.533Z,11
2019-02-22T04:18:01.044Z,10.92
2019-02-22T04:19:01.315Z,10.96
2019-02-22T04:20:01.329Z,11
2019-02-22T04:21:01.349Z,10.97
2019-02-22T04:22:01.363Z,11.05
2019-02-22T04:23:01.150Z,10.94
2019-02-22T04:24:01.413Z,10.97
2019-02-22T04:25:01.684Z,11.07
2019-02-22T04:26:01.725Z,11.02
2019-02-22T04:27:01.206Z,10.97
2019-02-22T04:28:01.928Z,10.93
2019-02-22T04:29:01.774Z,10.94
2019-02-22T04:30:01.803Z,10.97
2019-02-22T04:31:01.796Z,10.94
2019-02-22T04:32:01.567Z,11.04
2019-02-22T04:33:01.580Z,11.02
2019-02-22T04:34:01.598Z,10.93
2019-02-22T04:35:01.880Z,10.94
2019-02-22T04:36:01.636Z,10.92
2019-02-22T04:37:01.921Z,10.97
2019-02-22T04:38:01.677Z,10.99
2019-02-22T04:39:01.435Z,10.94
2019-02-22T04:40:01.462Z,10.99
2019-02-22T04:41:01.476Z,11.05
2019-02-22T04:42:02.932Z,10.99
2019-02-22T04:43:01.769Z,10.92
2019-02-22T04:44:01.528Z,10.9
2019-02-22T04:45:01.810Z,10.97
2019-02-22T04:46:02.096Z,10.94
2019-02-22T04:47:01.869Z,10.99
2019-02-22T04:48:01.879Z,11.07
2019-02-22T04:49:01.954Z,11
2019-02-22T04:50:01.646Z,10.92
2019-02-22T04:51:01.676Z,11
2019-02-22T04:52:01.949Z,10.99
2019-02-22T04:53:01.957Z,10.94
2019-02-22T04:54:01.978Z,10.93
2019-02-22T04:55:02.294Z,10.97
2019-02-22T04:56:02.032Z,10.96
2019-02-22T04:57:02.036Z,10.99
2019-02-22T04:58:02.066Z,10.97
2019-02-22T04:59:02.346Z,10.97
2019-02-22T05:00:02.094Z,10.89
2019-02-22T05:01:01.859Z,10.97
2019-02-22T05:02:02.405Z,10.93
2019-02-22T05:03:02.164Z,10.93
2019-02-22T05:04:01.911Z,11
2019-02-22T05:05:01.958Z,10.92
2019-02-22T05:06:02.215Z,10.96
2019-02-22T05:07:02.227Z,11
2019-02-22T05:08:02.251Z,10.93
2019-02-22T05:09:02.280Z,10.94
2019-02-22T05:10:02.035Z,10.96
2019-02-22T05:11:02.302Z,10.93
2019-02-22T05:12:15.195Z,10.96
2019-02-22T05:13:02.089Z,10.93
2019-02-22T05:14:02.624Z,10.93
2019-02-22T05:15:14.700Z,10.97
2019-02-22T05:16:02.398Z,11.02
2019-02-22T05:17:02.689Z,10.93
2019-02-22T05:18:02.444Z,10.96
2019-02-22T05:19:02.210Z,11.02
2019-02-22T05:20:02.630Z,10.9
2019-02-22T05:21:02.497Z,11.04
2019-02-22T05:22:02.276Z,11.02
2019-02-22T05:23:10.014Z,10.94
2019-02-22T05:24:02.297Z,10.92
2019-02-22T05:25:02.686Z,10.94
2019-02-22T05:26:02.343Z,10.93
2019-02-22T05:27:02.892Z,10.94
2019-02-22T05:28:02.442Z,10.92
2019-02-22T05:29:02.648Z,10.94
2019-02-22T05:30:02.836Z,10.96
2019-02-22T05:31:02.948Z,10.92
2019-02-22T05:32:02.520Z,10.93
2019-02-22T05:33:02.735Z,11.02
2019-02-22T05:34:02.486Z,10.96
2019-02-22T05:35:02.786Z,10.93
2019-02-22T05:36:02.527Z,10.92
2019-02-22T05:37:03.066Z,10.96
2019-02-22T05:38:02.835Z,10.94
2019-02-22T05:39:02.587Z,10.96
2019-02-22T05:40:02.904Z,10.94
2019-02-22T05:41:03.142Z,10.92
2019-02-22T05:42:02.911Z,10.97
2019-02-22T05:43:02.924Z,10.86
2019-02-22T05:44:02.937Z,10.9
2019-02-22T05:45:02.958Z,10.92
2019-02-22T05:46:02.975Z,10.82
2019-02-22T05:47:05.552Z,10.89
2019-02-22T05:48:03.024Z,10.99
2019-02-22T05:49:03.298Z,10.9
2019-02-22T05:50:03.061Z,10.9
2019-02-22T05:51:03.077Z,10.89
2019-02-22T05:52:03.396Z,10.92
2019-02-22T05:53:02.865Z,10.89
2019-02-22T05:54:03.127Z,10.81
2019-02-22T05:55:03.416Z,10.86
2019-02-22T05:56:03.164Z,10.92
2019-02-22T05:57:03.188Z,10.86
2019-02-22T05:58:03.207Z,10.84
2019-02-22T05:59:03.223Z,10.78
2019-02-22T06:00:03.508Z,10.86
2019-02-22T06:01:06.507Z,10.76
2019-02-22T06:02:03.288Z,10.81
2019-02-22T06:03:03.561Z,10.76
2019-02-22T06:04:03.326Z,10.81
2019-02-22T06:05:03.343Z,10.81
2019-02-22T06:06:03.621Z,10.76
2019-02-22T06:07:03.380Z,10.84
2019-02-22T06:08:03.735Z,10.92
2019-02-22T06:09:03.714Z,10.87
2019-02-22T06:10:03.721Z,10.9
2019-02-22T06:11:03.469Z,10.78
2019-02-22T06:12:03.488Z,10.76
2019-02-22T06:13:03.499Z,10.89
2019-02-22T06:14:03.520Z,10.76
2019-02-22T06:15:03.275Z,10.92
2019-02-22T06:16:03.379Z,10.86
2019-02-22T06:17:13.750Z,10.76
2019-02-22T06:18:03.856Z,10.76
2019-02-22T06:19:03.412Z,10.81
2019-02-22T06:20:03.375Z,10.92
2019-02-22T06:21:03.655Z,10.76
2019-02-22T06:22:03.423Z,10.75
2019-02-22T06:23:03.744Z,10.96
2019-02-22T06:24:05.129Z,10.81
2019-02-22T06:25:03.724Z,10.9
2019-02-22T06:26:04.169Z,10.87
2019-02-22T06:27:03.505Z,10.76
2019-02-22T06:28:03.527Z,10.76
2019-02-22T06:29:03.543Z,10.94
2019-02-22T06:30:03.903Z,10.76
2019-02-22T06:31:04.102Z,10.78
2019-02-22T06:32:03.859Z,10.89
2019-02-22T06:33:04.174Z,10.76
2019-02-22T06:34:03.896Z,10.96
2019-02-22T06:35:04.184Z,10.81
2019-02-22T06:36:03.938Z,10.82
2019-02-22T06:37:06.877Z,10.84
2019-02-22T06:38:03.730Z,10.93
2019-02-22T06:39:03.996Z,10.81
2019-02-22T06:40:04.031Z,10.87
2019-02-22T06:41:03.838Z,10.76
2019-02-22T06:42:04.052Z,10.86
2019-02-22T06:43:04.073Z,10.92
2019-02-22T06:44:04.433Z,10.86
2019-02-22T06:45:03.857Z,10.97
2019-02-22T06:46:03.881Z,10.86
2019-02-22T06:47:04.170Z,10.89
2019-02-22T06:48:03.912Z,10.89
2019-02-22T06:49:04.189Z,10.82
2019-02-22T06:50:04.473Z,10.92
2019-02-22T06:51:04.228Z,10.9
2019-02-22T06:52:04.532Z,10.9
2019-02-22T06:53:04.525Z,10.94
2019-02-22T06:54:04.543Z,10.76
2019-02-22T06:55:04.560Z,11
2019-02-22T06:56:04.320Z,10.93
2019-02-22T06:57:04.347Z,10.86
2019-02-22T06:58:04.362Z,10.81
2019-02-22T06:59:04.157Z,10.75
2019-02-22T07:00:04.402Z,10.94
2019-02-22T07:01:04.162Z,10.89
2019-02-22T07:02:04.187Z,10.86
2019-02-22T07:03:04.464Z,10.9
2019-02-22T07:04:04.737Z,10.78
2019-02-22T07:05:04.233Z,10.84
2019-02-22T07:06:05.626Z,10.93
2019-02-22T07:07:04.788Z,10.89
2019-02-22T07:08:04.546Z,10.89
2019-02-22T07:09:04.824Z,10.79
2019-02-22T07:10:04.587Z,10.76
2019-02-22T07:11:04.866Z,10.76
2019-02-22T07:12:04.367Z,10.81
2019-02-22T07:13:04.645Z,10.86
2019-02-22T07:14:04.405Z,10.87
2019-02-22T07:15:04.662Z,10.89
2019-02-22T07:16:04.706Z,10.93
2019-02-22T07:17:04.984Z,10.9
2019-02-22T07:18:04.996Z,10.87
2019-02-22T07:19:05.020Z,10.92
2019-02-22T07:20:04.907Z,10.9
2019-02-22T07:21:04.915Z,10.81
2019-02-22T07:22:05.079Z,10.89
2019-02-22T07:23:04.845Z,10.9
2019-02-22T07:24:07.028Z,10.92
2019-02-22T07:25:04.873Z,10.92
2019-02-22T07:26:04.912Z,10.86
2019-02-22T07:27:04.656Z,10.82
2019-02-22T07:28:04.976Z,10.75
2019-02-22T07:29:05.218Z,10.79
2019-02-22T07:30:05.429Z,10.87
2019-02-22T07:31:04.990Z,10.86
2019-02-22T07:32:10.256Z,10.94
2019-02-22T07:33:05.028Z,10.76
2019-02-22T07:34:05.063Z,10.99
2019-02-22T07:35:05.065Z,10.92
2019-02-22T07:36:04.834Z,10.87
2019-02-22T07:37:04.850Z,10.92
2019-02-22T07:38:04.863Z,10.76
2019-02-22T07:39:05.406Z,10.92
2019-02-22T07:40:04.917Z,10.76
2019-02-22T07:41:04.928Z,10.82
2019-02-22T07:42:04.946Z,10.92
2019-02-22T07:43:12.790Z,10.81
2019-02-22T07:44:04.977Z,10.84
2019-02-22T07:45:04.999Z,10.78
2019-02-22T07:46:05.289Z,10.9
2019-02-22T07:47:05.040Z,10.87
2019-02-22T07:48:05.316Z,10.92
2019-02-22T07:49:05.333Z,10.9
2019-02-22T07:50:05.352Z,10.82
2019-02-22T07:51:05.131Z,10.76
2019-02-22T07:52:05.659Z,10.86
2019-02-22T07:53:05.427Z,10.84
2019-02-22T07:54:05.690Z,10.76
2019-02-22T07:55:05.446Z,10.87
2019-02-22T07:56:05.467Z,10.81
2019-02-22T07:57:05.485Z,10.92
2019-02-22T07:58:05.504Z,10.86
2019-02-22T07:59:07.714Z,10.89
2019-02-22T08:00:05.546Z,10.9
2019-02-22T08:01:05.564Z,10.92
2019-02-22T08:02:05.581Z,10.82
2019-02-22T08:03:05.387Z,10.89
2019-02-22T08:04:05.362Z,10.76
2019-02-22T08:05:05.899Z,10.92
2019-02-22T08:06:05.927Z,10.9
2019-02-22T08:07:05.418Z,10.86
2019-02-22T08:08:05.709Z,10.9
2019-02-22T08:09:05.867Z,10.86
2019-02-22T08:10:05.485Z,10.9
2019-02-22T08:11:05.502Z,10.89
2019-02-22T08:12:05.777Z,10.94
2019-02-22T08:13:06.051Z,10.96
2019-02-22T08:14:07.860Z,10.89
2019-02-22T08:15:06.091Z,10.9
2019-02-22T08:16:05.593Z,10.96
2019-02-22T08:17:05.608Z,11.04
2019-02-22T08:18:05.633Z,10.96
2019-02-22T08:19:06.643Z,10.9
2019-02-22T08:20:05.666Z,10.87
2019-02-22T08:21:05.693Z,10.93
2019-02-22T08:22:08.205Z,10.89
2019-02-22T08:23:06.061Z,10.96
2019-02-22T08:24:06.264Z,10.94
2019-02-22T08:25:05.765Z,10.99
2019-02-22T08:26:05.786Z,10.99
2019-02-22T08:27:06.066Z,11.02
2019-02-22T08:28:05.829Z,11.02
2019-02-22T08:29:05.851Z,11.02
2019-02-22T08:30:05.871Z,11
2019-02-22T08:31:06.134Z,10.97
2019-02-22T08:32:06.263Z,11.02
2019-02-22T08:33:06.183Z,10.97
2019-02-22T08:34:06.195Z,10.97
2019-02-22T08:35:06.215Z,11
2019-02-22T08:36:06.535Z,11.04
2019-02-22T08:37:06.507Z,11.07
2019-02-22T08:38:06.529Z,11.02
2019-02-22T08:39:06.393Z,11
2019-02-22T08:40:07.204Z,11.1
2019-02-22T08:41:06.331Z,11.07
2019-02-22T08:42:06.379Z,11.02
2019-02-22T08:43:06.105Z,11.02
2019-02-22T08:44:06.383Z,11.12
2019-02-22T08:45:06.410Z,11
2019-02-22T08:46:06.165Z,11.11
2019-02-22T08:47:06.707Z,11.14
2019-02-22T08:48:06.208Z,11.12
2019-02-22T08:49:06.743Z,11.1
2019-02-22T08:50:06.498Z,11.12
2019-02-22T08:51:06.550Z,11.14
2019-02-22T08:52:06.564Z,11.08
2019-02-22T08:53:06.301Z,11.14
2019-02-22T08:54:06.315Z,11.07
2019-02-22T08:55:06.592Z,11.12
2019-02-22T08:56:06.624Z,11.08
2019-02-22T08:57:06.380Z,11.11
2019-02-22T08:58:06.391Z,11.18
2019-02-22T08:59:06.414Z,11.1
2019-02-22T09:00:06.953Z,11.14
2019-02-22T09:01:06.721Z,11.12
2019-02-22T09:02:07.006Z,11.07
2019-02-22T09:03:06.746Z,11.12
2019-02-22T09:04:06.509Z,11.14
2019-02-22T09:05:06.539Z,11.12
2019-02-22T09:06:06.802Z,11.08
2019-02-22T09:07:06.586Z,11.17
2019-02-22T09:08:06.585Z,11.11
2019-02-22T09:09:06.864Z,11.11
2019-02-22T09:10:06.886Z,11.08
2019-02-22T09:11:06.643Z,11.1
2019-02-22T09:12:06.662Z,11.18
2019-02-22T09:13:06.691Z,11.08
2019-02-22T09:14:06.956Z,11.07
2019-02-22T09:15:06.721Z,11.15
2019-02-22T09:16:06.745Z,11.12
2019-02-22T09:17:06.773Z,11.12
2019-02-22T09:18:07.036Z,11.15
2019-02-22T09:19:07.062Z,11.11
2019-02-22T09:20:06.821Z,11.17
2019-02-22T09:21:07.100Z,11.15
2019-02-22T09:22:07.114Z,11.15
2019-02-22T09:23:09.753Z,11.22
2019-02-22T09:24:06.901Z,11.12
2019-02-22T09:25:07.187Z,11.17
2019-02-22T09:26:06.931Z,11.19
2019-02-22T09:27:06.961Z,11.17
2019-02-22T09:28:06.971Z,11.19
2019-02-22T09:29:07.077Z,11.25
2019-02-22T09:30:07.056Z,11.19
2019-02-22T09:31:07.029Z,11.14
2019-02-22T09:32:07.567Z,11.22
2019-02-22T09:33:07.071Z,11.15
2019-02-22T09:34:07.609Z,11.25
2019-02-22T09:35:07.365Z,11.19
2019-02-22T09:36:07.409Z,11.23
2019-02-22T09:37:07.414Z,11.22
2019-02-22T09:38:07.417Z,11.27
2019-02-22T09:39:07.716Z,11.26
2019-02-22T09:40:07.733Z,11.35
2019-02-22T09:41:07.223Z,11.32
2019-02-22T09:42:07.243Z,11.32
2019-02-22T09:43:07.515Z,11.27
2019-02-22T09:44:07.538Z,11.33
2019-02-22T09:45:07.845Z,11.4
2019-02-22T09:46:07.578Z,11.41
2019-02-22T09:47:07.599Z,11.37
2019-02-22T09:48:07.370Z,11.36
2019-02-22T09:49:07.635Z,11.41
2019-02-22T09:50:07.653Z,11.41
2019-02-22T09:51:07.670Z,11.37
2019-02-22T09:52:07.947Z,11.48
2019-02-22T09:53:07.968Z,11.54
2019-02-22T09:54:07.735Z,11.5
2019-02-22T09:55:07.495Z,11.43
2019-02-22T09:56:07.780Z,11.52
2019-02-22T09:57:08.052Z,11.55
2019-02-22T09:58:07.862Z,11.43
2019-02-22T09:59:07.833Z,11.52
2019-02-22T10:00:08.105Z,11.5
2019-02-22T10:01:07.611Z,11.55
2019-02-22T10:02:07.888Z,11.57
2019-02-22T10:03:07.650Z,11.52
2019-02-22T10:04:07.743Z,11.59
2019-02-22T10:05:07.952Z,11.57
2019-02-22T10:06:07.962Z,11.57
2019-02-22T10:07:07.984Z,11.55
2019-02-22T10:08:07.760Z,11.55
2019-02-22T10:09:08.683Z,11.55
2019-02-22T10:10:07.781Z,11.68
2019-02-22T10:11:08.065Z,11.55
2019-02-22T10:12:07.820Z,11.62
2019-02-22T10:13:08.111Z,11.69
2019-02-22T10:14:11.514Z,11.55
2019-02-22T10:15:07.885Z,11.57
2019-02-22T10:16:08.419Z,11.63
2019-02-22T10:17:08.180Z,11.59
2019-02-22T10:18:08.542Z,11.62
2019-02-22T10:19:07.959Z,11.57
2019-02-22T10:20:07.991Z,11.57
2019-02-22T10:21:08.274Z,11.7
2019-02-22T10:22:08.019Z,11.68
2019-02-22T10:23:08.573Z,11.62
2019-02-22T10:24:08.060Z,11.72
2019-02-22T10:25:08.385Z,11.66
2019-02-22T10:26:08.381Z,11.69
2019-02-22T10:27:08.720Z,11.66
2019-02-22T10:28:19.728Z,11.69
2019-02-22T10:29:08.413Z,11.81
2019-02-22T10:30:08.174Z,11.73
2019-02-22T10:31:08.455Z,11.83
2019-02-22T10:32:08.494Z,11.94
2019-02-22T10:33:08.492Z,11.81
2019-02-22T10:34:08.521Z,11.8
2019-02-22T10:35:08.274Z,11.83
2019-02-22T10:36:08.551Z,11.83
2019-02-22T10:37:08.578Z,11.81
2019-02-22T10:38:08.851Z,11.87
2019-02-22T10:39:10.682Z,11.88
2019-02-22T10:40:08.639Z,11.84
2019-02-22T10:41:08.651Z,11.88
2019-02-22T10:42:08.692Z,11.97
2019-02-22T10:43:08.949Z,11.9
2019-02-22T10:44:19.328Z,11.88
2019-02-22T10:45:08.476Z,11.84
2019-02-22T10:46:08.754Z,11.9
2019-02-22T10:47:08.781Z,11.97
2019-02-22T10:48:08.811Z,12.02
2019-02-22T10:49:08.813Z,11.95
2019-02-22T10:50:08.851Z,11.94
2019-02-22T10:51:08.852Z,11.95
2019-02-22T10:52:08.875Z,12.06
2019-02-22T10:53:08.632Z,11.99
2019-02-22T10:54:09.169Z,11.99
2019-02-22T10:55:08.936Z,12.04
2019-02-22T10:56:08.951Z,12
2019-02-22T10:57:08.975Z,12.06
2019-02-22T10:58:08.990Z,12.02
2019-02-22T10:59:08.758Z,12.06
2019-02-22T11:00:09.035Z,12.02
2019-02-22T11:01:09.346Z,12.07
2019-02-22T11:02:09.075Z,12
2019-02-22T11:03:09.099Z,12
2019-02-22T11:04:08.854Z,12.03
2019-02-22T11:05:09.132Z,12.02
2019-02-22T11:06:09.151Z,12
2019-02-22T11:07:09.170Z,12
2019-02-22T11:08:08.934Z,12.02
2019-02-22T11:09:09.209Z,12
2019-02-22T11:10:09.228Z,11.9
2019-02-22T11:11:09.269Z,12.02
2019-02-22T11:12:09.274Z,11.95
2019-02-22T11:13:09.292Z,11.87
2019-02-22T11:14:09.058Z,11.94
2019-02-22T11:15:09.333Z,11.94
2019-02-22T11:16:09.345Z,11.95
2019-02-22T11:17:09.379Z,11.94
2019-02-22T11:18:09.133Z,11.88
2019-02-22T11:19:09.161Z,11.94
2019-02-22T11:20:09.428Z,11.94
2019-02-22T11:21:09.707Z,11.97
2019-02-22T11:22:09.469Z,11.87
2019-02-22T11:23:09.488Z,11.81
2019-02-22T11:24:09.508Z,11.88
2019-02-22T11:25:09.530Z,11.88
2019-02-22T11:26:09.290Z,11.81
2019-02-22T11:27:09.310Z,11.87
2019-02-22T11:28:09.585Z,11.84
2019-02-22T11:29:09.620Z,11.8
2019-02-22T11:30:09.886Z,11.8
2019-02-22T11:31:09.645Z,11.78
2019-02-22T11:32:09.416Z,11.77
2019-02-22T11:33:09.961Z,11.84
2019-02-22T11:34:09.708Z,11.84
2019-02-22T11:35:09.747Z,11.77
2019-02-22T11:36:09.749Z,11.83
2019-02-22T11:37:10.028Z,11.73
2019-02-22T11:38:10.054Z,11.75
2019-02-22T11:39:09.805Z,11.77
2019-02-22T11:40:09.569Z,11.7
2019-02-22T11:41:09.851Z,11.63
2019-02-22T11:42:09.607Z,11.7
2019-02-22T11:43:10.142Z,11.7
2019-02-22T11:44:09.669Z,11.75
2019-02-22T11:45:10.205Z,11.63
2019-02-22T11:46:09.946Z,11.62
2019-02-22T11:47:09.986Z,11.66
2019-02-22T11:48:13.977Z,11.65
2019-02-22T11:49:10.005Z,11.66
2019-02-22T11:50:10.334Z,11.57
2019-02-22T11:51:10.041Z,11.63
2019-02-22T11:52:10.060Z,11.6
2019-02-22T11:53:10.078Z,11.7
2019-02-22T11:54:10.097Z,11.68
2019-02-22T11:55:10.125Z,11.68
2019-02-22T11:56:09.885Z,11.69
2019-02-22T11:57:09.909Z,11.68
2019-02-22T11:58:09.917Z,11.69
2019-02-22T11:59:10.199Z,11.73
2019-02-22T12:00:10.478Z,11.7
2019-02-22T12:01:10.241Z,11.69
2019-02-22T12:02:10.523Z,11.69
2019-02-22T12:03:27.908Z,11.73
2019-02-22T12:04:10.294Z,11.68
2019-02-22T12:05:10.058Z,11.72
2019-02-22T12:06:10.344Z,11.75
2019-02-22T12:07:10.104Z,11.72
2019-02-22T12:08:10.377Z,11.77
2019-02-22T12:09:10.393Z,11.8
2019-02-22T12:10:10.416Z,11.87
2019-02-22T12:11:10.196Z,11.8
2019-02-22T12:12:10.451Z,11.81
2019-02-22T12:13:10.217Z,11.83
2019-02-22T12:14:10.493Z,11.88
2019-02-22T12:15:10.517Z,11.84
2019-02-22T12:16:10.531Z,11.84
2019-02-22T12:17:10.299Z,11.88
2019-02-22T12:18:10.572Z,11.81
2019-02-22T12:19:10.331Z,11.94
2019-02-22T12:20:10.614Z,11.97
2019-02-22T12:21:10.894Z,12.02
2019-02-22T12:22:10.391Z,12
2019-02-22T12:23:10.973Z,12.03
2019-02-22T12:24:10.448Z,12.07
2019-02-22T12:25:10.457Z,12.04
2019-02-22T12:26:10.736Z,12.1
2019-02-22T12:27:10.748Z,12.12
2019-02-22T12:28:10.772Z,12.09
2019-02-22T12:29:10.792Z,12.12
2019-02-22T12:30:10.811Z,12.09
2019-02-22T12:31:11.101Z,12.2
2019-02-22T12:32:10.851Z,12.1
2019-02-22T12:33:10.623Z,12.12
2019-02-22T12:34:11.148Z,12.2
2019-02-22T12:35:10.907Z,12.21
2019-02-22T12:36:11.958Z,12.18
2019-02-22T12:37:10.689Z,12.21
2019-02-22T12:38:11.229Z,12.2
2019-02-22T12:39:11.000Z,12.21
2019-02-22T12:40:10.751Z,12.25
2019-02-22T12:41:11.025Z,12.31
2019-02-22T12:42:11.047Z,12.24
2019-02-22T12:43:11.066Z,12.28
2019-02-22T12:44:11.100Z,12.22
2019-02-22T12:45:11.378Z,12.28
2019-02-22T12:46:11.134Z,12.29
2019-02-22T12:47:11.464Z,12.27
2019-02-22T12:48:10.914Z,12.2
2019-02-22T12:49:10.934Z,12.24
2019-02-22T12:50:11.210Z,12.2
2019-02-22T12:51:11.022Z,12.22
2019-02-22T12:52:11.246Z,12.21
2019-02-22T12:53:11.272Z,12.28
2019-02-22T12:54:11.035Z,12.32
2019-02-22T12:55:11.051Z,12.29
2019-02-22T12:56:11.634Z,12.25
2019-02-22T12:57:11.606Z,12.28
2019-02-22T12:58:11.367Z,12.31
2019-02-22T12:59:11.129Z,12.29